sensor_id;sensor_type;location;lat;lon;timestamp;pressure;altitude;pressure_sealevel;temperature;humidity
68366;BME280;55283;51.466;5.478;2023-02-26T00:01:30;101642.38;;;19.39;35.10
68366;BME280;55283;51.466;5.478;2023-02-26T00:03:58;101652.44;;;19.33;34.95
68366;BME280;55283;51.466;5.478;2023-02-26T00:06:25;101646.84;;;19.33;34.98
68366;BME280;55283;51.466;5.478;2023-02-26T00:08:51;101645.22;;;19.35;34.72
68366;BME280;55283;51.466;5.478;2023-02-26T00:11:16;101660.41;;;19.34;34.82
68366;BME280;55283;51.466;5.478;2023-02-26T00:13:43;101664.38;;;19.37;34.88
68366;BME280;55283;51.466;5.478;2023-02-26T00:16:26;101668.78;;;19.38;34.81
68366;BME280;55283;51.466;5.478;2023-02-26T00:18:53;101678.72;;;19.39;34.81
68366;BME280;55283;51.466;5.478;2023-02-26T00:21:21;101665.19;;;19.34;34.92
68366;BME280;55283;51.466;5.478;2023-02-26T00:23:47;101669.22;;;19.33;34.68
68366;BME280;55283;51.466;5.478;2023-02-26T00:26:12;101681.13;;;19.37;34.58
68366;BME280;55283;51.466;5.478;2023-02-26T00:28:38;101677.16;;;19.34;34.83
68366;BME280;55283;51.466;5.478;2023-02-26T00:31:04;101673.53;;;19.37;34.79
68366;BME280;55283;51.466;5.478;2023-02-26T00:33:30;101672.31;;;19.42;34.87
68366;BME280;55283;51.466;5.478;2023-02-26T00:36:02;101679.47;;;19.43;35.09
68366;BME280;55283;51.466;5.478;2023-02-26T00:38:33;101689.84;;;19.46;34.84
68366;BME280;55283;51.466;5.478;2023-02-26T00:41:00;101688.25;;;19.45;34.69
68366;BME280;55283;51.466;5.478;2023-02-26T00:43:26;101687.44;;;19.48;34.79
68366;BME280;55283;51.466;5.478;2023-02-26T00:49:09;101696.25;;;19.47;35.12
68366;BME280;55283;51.466;5.478;2023-02-26T00:51:52;101692.63;;;19.46;34.45
68366;BME280;55283;51.466;5.478;2023-02-26T00:54:21;101698.66;;;19.44;34.58
68366;BME280;55283;51.466;5.478;2023-02-26T00:56:49;101701.84;;;19.43;34.51
68366;BME280;55283;51.466;5.478;2023-02-26T00:59:16;101701.06;;;19.42;34.82
68366;BME280;55283;51.466;5.478;2023-02-26T01:01:42;101708.66;;;19.42;34.65
68366;BME280;55283;51.466;5.478;2023-02-26T01:04:08;101701.06;;;19.42;34.57
68366;BME280;55283;51.466;5.478;2023-02-26T01:06:41;101702.69;;;19.40;34.72
68366;BME280;55283;51.466;5.478;2023-02-26T01:11:37;101710.66;;;19.41;34.38
68366;BME280;55283;51.466;5.478;2023-02-26T01:14:03;101713.47;;;19.41;34.07
68366;BME280;55283;51.466;5.478;2023-02-26T01:16:33;101716.25;;;19.41;34.37
68366;BME280;55283;51.466;5.478;2023-02-26T01:19:13;101720.25;;;19.40;34.46
68366;BME280;55283;51.466;5.478;2023-02-26T01:21:44;101717.44;;;19.40;34.58
68366;BME280;55283;51.466;5.478;2023-02-26T01:24:15;101719.84;;;19.42;34.27
68366;BME280;55283;51.466;5.478;2023-02-26T01:26:42;101728.22;;;19.42;34.21
68366;BME280;55283;51.466;5.478;2023-02-26T01:29:11;101723.03;;;19.40;34.46
68366;BME280;55283;51.466;5.478;2023-02-26T01:34:38;101713.88;;;19.40;34.64
68366;BME280;55283;51.466;5.478;2023-02-26T01:39:44;101712.25;;;19.42;34.77
68366;BME280;55283;51.466;5.478;2023-02-26T01:42:23;101713.03;;;19.43;34.78
68366;BME280;55283;51.466;5.478;2023-02-26T01:45:00;101717.81;;;19.46;34.61
68366;BME280;55283;51.466;5.478;2023-02-26T01:47:32;101709.94;;;19.34;34.30
68366;BME280;55283;51.466;5.478;2023-02-26T01:50:15;101720.59;;;19.46;34.74
68366;BME280;55283;51.466;5.478;2023-02-26T01:55:19;101726.59;;;19.48;34.57
68366;BME280;55283;51.466;5.478;2023-02-26T01:57:46;101724.19;;;19.50;34.30
68366;BME280;55283;51.466;5.478;2023-02-26T02:00:13;101727.75;;;19.51;34.38
68366;BME280;55283;51.466;5.478;2023-02-26T02:02:39;101727.38;;;19.49;34.17
68366;BME280;55283;51.466;5.478;2023-02-26T02:05:23;101737.31;;;19.53;34.22
68366;BME280;55283;51.466;5.478;2023-02-26T02:07:51;101740.16;;;19.50;34.22
68366;BME280;55283;51.466;5.478;2023-02-26T02:10:17;101742.56;;;19.48;34.01
68366;BME280;55283;51.466;5.478;2023-02-26T02:12:53;101752.53;;;19.49;34.30
68366;BME280;55283;51.466;5.478;2023-02-26T02:23:44;101764.50;;;19.49;34.22
68366;BME280;55283;51.466;5.478;2023-02-26T02:26:42;101768.13;;;19.46;34.28
68366;BME280;55283;51.466;5.478;2023-02-26T02:32:23;101776.16;;;19.40;34.13
68366;BME280;55283;51.466;5.478;2023-02-26T02:35:08;101777.00;;;19.37;34.31
68366;BME280;55283;51.466;5.478;2023-02-26T02:38:25;101782.59;;;19.37;34.15
68366;BME280;55283;51.466;5.478;2023-02-26T02:40:36;101775.44;;;19.33;34.14
68366;BME280;55283;51.466;5.478;2023-02-26T02:43:08;101785.84;;;19.32;33.98
68366;BME280;55283;51.466;5.478;2023-02-26T02:48:39;101790.59;;;19.32;34.01
68366;BME280;55283;51.466;5.478;2023-02-26T02:51:13;101781.06;;;19.29;34.08
68366;BME280;55283;51.466;5.478;2023-02-26T02:56:49;101784.66;;;19.30;33.84
68366;BME280;55283;51.466;5.478;2023-02-26T03:01:52;101796.22;;;19.28;33.90
68366;BME280;55283;51.466;5.478;2023-02-26T03:04:18;101801.81;;;19.28;33.57
68366;BME280;55283;51.466;5.478;2023-02-26T03:06:43;101798.63;;;19.30;33.88
68366;BME280;55283;51.466;5.478;2023-02-26T03:09:11;101804.63;;;19.28;33.83
68366;BME280;55283;51.466;5.478;2023-02-26T03:11:38;101807.41;;;19.28;33.71
68366;BME280;55283;51.466;5.478;2023-02-26T03:14:04;101807.81;;;19.30;33.88
68366;BME280;55283;51.466;5.478;2023-02-26T03:21:52;101810.19;;;19.35;34.09
68366;BME280;55283;51.466;5.478;2023-02-26T03:27:29;101826.53;;;19.37;34.09
68366;BME280;55283;51.466;5.478;2023-02-26T03:32:31;101821.31;;;19.39;34.02
68366;BME280;55283;51.466;5.478;2023-02-26T03:35:08;101826.91;;;19.39;33.88
68366;BME280;55283;51.466;5.478;2023-02-26T03:37:45;101831.31;;;19.40;33.94
68366;BME280;55283;51.466;5.478;2023-02-26T03:40:33;101832.91;;;19.41;33.94
68366;BME280;55283;51.466;5.478;2023-02-26T03:43:07;101840.47;;;19.40;33.87
68366;BME280;55283;51.466;5.478;2023-02-26T03:45:38;101841.28;;;19.37;34.08
68366;BME280;55283;51.466;5.478;2023-02-26T03:48:07;101850.50;;;19.38;33.71
68366;BME280;55283;51.466;5.478;2023-02-26T03:50:39;101853.69;;;19.36;33.79
68366;BME280;55283;51.466;5.478;2023-02-26T03:53:12;101858.91;;;19.38;33.62
68366;BME280;55283;51.466;5.478;2023-02-26T03:55:45;101869.25;;;19.37;33.66
68366;BME280;55283;51.466;5.478;2023-02-26T03:58:14;101865.66;;;19.37;33.54
68366;BME280;55283;51.466;5.478;2023-02-26T04:00:42;101864.09;;;19.36;33.41
68366;BME280;55283;51.466;5.478;2023-02-26T04:05:40;101872.88;;;19.34;33.60
68366;BME280;55283;51.466;5.478;2023-02-26T04:08:09;101873.69;;;19.35;33.46
68366;BME280;55283;51.466;5.478;2023-02-26T04:10:59;101872.09;;;19.34;33.70
68366;BME280;55283;51.466;5.478;2023-02-26T04:13:31;101872.09;;;19.30;33.25
68366;BME280;55283;51.466;5.478;2023-02-26T04:15:56;101876.91;;;19.30;33.12
68366;BME280;55283;51.466;5.478;2023-02-26T04:18:25;101877.69;;;19.30;33.58
68366;BME280;55283;51.466;5.478;2023-02-26T04:20:50;101882.50;;;19.30;33.44
68366;BME280;55283;51.466;5.478;2023-02-26T04:23:16;101884.09;;;19.31;33.43
68366;BME280;55283;51.466;5.478;2023-02-26T04:25:41;101883.25;;;19.34;33.51
68366;BME280;55283;51.466;5.478;2023-02-26T04:28:07;101887.22;;;19.40;33.79
68366;BME280;55283;51.466;5.478;2023-02-26T04:30:32;101892.81;;;19.40;33.64
68366;BME280;55283;51.466;5.478;2023-02-26T04:32:57;101891.63;;;19.41;33.61
68366;BME280;55283;51.466;5.478;2023-02-26T04:35:26;101896.41;;;19.44;33.84
68366;BME280;55283;51.466;5.478;2023-02-26T04:37:51;101903.19;;;19.43;33.71
68366;BME280;55283;51.466;5.478;2023-02-26T04:40:19;101896.75;;;19.46;33.90
68366;BME280;55283;51.466;5.478;2023-02-26T04:42:47;101892.81;;;19.43;33.60
68366;BME280;55283;51.466;5.478;2023-02-26T04:45:12;101905.97;;;19.43;33.47
68366;BME280;55283;51.466;5.478;2023-02-26T04:47:38;101907.59;;;19.44;33.63
68366;BME280;55283;51.466;5.478;2023-02-26T04:50:03;101909.59;;;19.40;33.34
68366;BME280;55283;51.466;5.478;2023-02-26T04:52:29;101914.38;;;19.43;33.25
68366;BME280;55283;51.466;5.478;2023-02-26T04:54:57;101912.78;;;19.42;33.44
68366;BME280;55283;51.466;5.478;2023-02-26T04:57:22;101914.38;;;19.43;33.39
68366;BME280;55283;51.466;5.478;2023-02-26T04:59:47;101915.97;;;19.44;33.50
68366;BME280;55283;51.466;5.478;2023-02-26T05:02:13;101924.75;;;19.42;33.46
68366;BME280;55283;51.466;5.478;2023-02-26T05:04:38;101931.97;;;19.40;33.38
68366;BME280;55283;51.466;5.478;2023-02-26T05:07:04;101931.97;;;19.40;33.14
68366;BME280;55283;51.466;5.478;2023-02-26T05:09:29;101937.56;;;19.40;33.13
68366;BME280;55283;51.466;5.478;2023-02-26T05:11:55;101935.97;;;19.39;33.18
68366;BME280;55283;51.466;5.478;2023-02-26T05:14:20;101943.97;;;19.37;33.07
68366;BME280;55283;51.466;5.478;2023-02-26T05:16:46;101940.78;;;19.35;33.21
68366;BME280;55283;51.466;5.478;2023-02-26T05:19:11;101945.56;;;19.34;33.08
68366;BME280;55283;51.466;5.478;2023-02-26T05:21:36;101947.56;;;19.34;33.03
68366;BME280;55283;51.466;5.478;2023-02-26T05:24:07;101949.97;;;19.32;32.96
68366;BME280;55283;51.466;5.478;2023-02-26T05:26:32;101954.75;;;19.31;33.09
68366;BME280;55283;51.466;5.478;2023-02-26T05:28:58;101957.56;;;19.31;32.99
68366;BME280;55283;51.466;5.478;2023-02-26T05:31:23;101960.34;;;19.31;32.96
68366;BME280;55283;51.466;5.478;2023-02-26T05:33:51;101945.25;;;19.21;33.00
68366;BME280;55283;51.466;5.478;2023-02-26T05:36:17;101962.38;;;19.27;32.93
68366;BME280;55283;51.466;5.478;2023-02-26T05:38:42;101960.38;;;19.28;33.03
68366;BME280;55283;51.466;5.478;2023-02-26T05:41:08;101970.34;;;19.29;33.03
68366;BME280;55283;51.466;5.478;2023-02-26T05:43:33;101965.22;;;19.23;32.88
68366;BME280;55283;51.466;5.478;2023-02-26T05:45:58;101962.00;;;19.25;32.87
68366;BME280;55283;51.466;5.478;2023-02-26T05:48:24;101961.19;;;19.25;32.92
68366;BME280;55283;51.466;5.478;2023-02-26T05:50:50;101970.38;;;19.25;33.05
68366;BME280;55283;51.466;5.478;2023-02-26T05:53:16;101968.38;;;19.26;33.04
68366;BME280;55283;51.466;5.478;2023-02-26T05:55:41;101976.75;;;19.26;32.91
68366;BME280;55283;51.466;5.478;2023-02-26T05:58:07;101978.75;;;19.29;33.16
68366;BME280;55283;51.466;5.478;2023-02-26T06:00:34;101980.72;;;19.32;33.10
68366;BME280;55283;51.466;5.478;2023-02-26T06:03:00;101979.50;;;19.36;33.23
68366;BME280;55283;51.466;5.478;2023-02-26T06:05:25;101985.91;;;19.37;33.08
68366;BME280;55283;51.466;5.478;2023-02-26T06:07:54;101989.09;;;19.39;33.40
68366;BME280;55283;51.466;5.478;2023-02-26T06:10:20;101996.28;;;19.40;33.25
68366;BME280;55283;51.466;5.478;2023-02-26T06:12:50;101996.66;;;19.42;33.23
68366;BME280;55283;51.466;5.478;2023-02-26T06:15:15;101993.47;;;19.43;33.22
68366;BME280;55283;51.466;5.478;2023-02-26T06:17:40;101997.06;;;19.44;33.07
68366;BME280;55283;51.466;5.478;2023-02-26T06:20:07;102001.47;;;19.41;33.37
68366;BME280;55283;51.466;5.478;2023-02-26T06:22:33;102011.88;;;19.41;33.19
68366;BME280;55283;51.466;5.478;2023-02-26T06:24:58;102013.47;;;19.38;33.11
68366;BME280;55283;51.466;5.478;2023-02-26T06:27:24;102020.66;;;19.39;33.00
68366;BME280;55283;51.466;5.478;2023-02-26T06:29:52;102025.44;;;19.39;33.09
68366;BME280;55283;51.466;5.478;2023-02-26T06:32:17;102027.81;;;19.40;33.58
68366;BME280;55283;51.466;5.478;2023-02-26T06:34:45;102031.81;;;19.43;33.52
68366;BME280;55283;51.466;5.478;2023-02-26T06:37:14;102039.81;;;19.37;32.28
68366;BME280;55283;51.466;5.478;2023-02-26T06:39:40;102036.66;;;19.28;33.23
68366;BME280;55283;51.466;5.478;2023-02-26T06:42:06;102057.41;;;19.31;33.03
68366;BME280;55283;51.466;5.478;2023-02-26T06:44:31;102051.41;;;19.36;32.88
68366;BME280;55283;51.466;5.478;2023-02-26T06:46:56;102065.81;;;19.31;32.37
68366;BME280;55283;51.466;5.478;2023-02-26T06:49:22;102072.22;;;19.28;32.69
68366;BME280;55283;51.466;5.478;2023-02-26T06:51:47;102073.00;;;19.32;33.11
68366;BME280;55283;51.466;5.478;2023-02-26T06:54:12;102076.56;;;19.43;33.45
68366;BME280;55283;51.466;5.478;2023-02-26T06:56:38;102084.53;;;19.48;33.23
68366;BME280;55283;51.466;5.478;2023-02-26T06:59:03;102088.13;;;19.52;33.14
68366;BME280;55283;51.466;5.478;2023-02-26T07:01:32;102088.50;;;19.54;33.38
68366;BME280;55283;51.466;5.478;2023-02-26T07:03:57;102099.69;;;19.54;33.19
68366;BME280;55283;51.466;5.478;2023-02-26T07:06:23;102101.31;;;19.55;33.61
68366;BME280;55283;51.466;5.478;2023-02-26T07:08:48;102104.50;;;19.57;33.43
68366;BME280;55283;51.466;5.478;2023-02-26T07:11:13;102108.88;;;19.55;33.22
68366;BME280;55283;51.466;5.478;2023-02-26T07:13:42;102116.88;;;19.53;33.34
68366;BME280;55283;51.466;5.478;2023-02-26T07:16:07;102110.13;;;19.47;33.52
68366;BME280;55283;51.466;5.478;2023-02-26T07:18:34;102112.50;;;19.48;33.40
68366;BME280;55283;51.466;5.478;2023-02-26T07:20:59;102116.94;;;19.35;33.39
68366;BME280;55283;51.466;5.478;2023-02-26T07:23:28;102128.50;;;19.37;33.08
68366;BME280;55283;51.466;5.478;2023-02-26T07:25:54;102134.09;;;19.33;33.20
68366;BME280;55283;51.466;5.478;2023-02-26T07:28:22;102139.66;;;19.40;34.01
68366;BME280;55283;51.466;5.478;2023-02-26T07:30:48;102138.50;;;19.31;34.34
68366;BME280;55283;51.466;5.478;2023-02-26T07:33:16;102140.91;;;19.25;34.19
68366;BME280;55283;51.466;5.478;2023-02-26T07:35:41;102152.09;;;19.25;34.13
68366;BME280;55283;51.466;5.478;2023-02-26T07:38:09;102159.28;;;19.30;33.92
68366;BME280;55283;51.466;5.478;2023-02-26T07:40:35;102158.88;;;19.28;33.22
68366;BME280;55283;51.466;5.478;2023-02-26T07:43:00;102160.06;;;19.19;32.95
68366;BME280;55283;51.466;5.478;2023-02-26T07:45:29;102166.88;;;19.18;33.07
68366;BME280;55283;51.466;5.478;2023-02-26T07:48:15;102176.03;;;19.22;32.80
68366;BME280;55283;51.466;5.478;2023-02-26T07:50:40;102170.47;;;19.19;32.56
68366;BME280;55283;51.466;5.478;2023-02-26T07:53:08;102173.28;;;19.15;32.11
68366;BME280;55283;51.466;5.478;2023-02-26T07:55:33;102170.09;;;18.88;27.51
68366;BME280;55283;51.466;5.478;2023-02-26T07:57:58;102176.03;;;18.65;26.54
68366;BME280;55283;51.466;5.478;2023-02-26T08:00:24;102184.38;;;18.51;26.38
68366;BME280;55283;51.466;5.478;2023-02-26T08:02:49;102190.72;;;18.37;25.65
68366;BME280;55283;51.466;5.478;2023-02-26T08:05:15;102187.06;;;18.22;24.97
68366;BME280;55283;51.466;5.478;2023-02-26T08:07:46;102188.66;;;18.27;27.09
68366;BME280;55283;51.466;5.478;2023-02-26T08:10:11;102189.91;;;18.47;28.07
68366;BME280;55283;51.466;5.478;2023-02-26T08:12:40;102197.16;;;18.70;29.07
68366;BME280;55283;51.466;5.478;2023-02-26T08:15:06;102202.00;;;18.80;31.25
68366;BME280;55283;51.466;5.478;2023-02-26T08:17:33;102188.84;;;18.91;31.07
68366;BME280;55283;51.466;5.478;2023-02-26T08:19:59;102195.63;;;18.97;30.77
68366;BME280;55283;51.466;5.478;2023-02-26T08:22:24;102202.81;;;19.09;30.99
68366;BME280;55283;51.466;5.478;2023-02-26T08:24:50;102197.63;;;19.18;31.03
68366;BME280;55283;51.466;5.478;2023-02-26T08:27:15;102201.59;;;19.28;31.16
68366;BME280;55283;51.466;5.478;2023-02-26T08:29:43;102208.81;;;19.33;31.27
68366;BME280;55283;51.466;5.478;2023-02-26T08:32:11;102217.19;;;19.43;30.87
68366;BME280;55283;51.466;5.478;2023-02-26T08:34:36;102215.16;;;19.51;30.88
68366;BME280;55283;51.466;5.478;2023-02-26T08:37:04;102215.19;;;19.58;30.99
68366;BME280;55283;51.466;5.478;2023-02-26T08:39:30;102224.38;;;19.62;30.94
68366;BME280;55283;51.466;5.478;2023-02-26T08:42:02;102221.97;;;19.68;31.53
68366;BME280;55283;51.466;5.478;2023-02-26T08:44:27;102229.16;;;19.73;31.10
68366;BME280;55283;51.466;5.478;2023-02-26T08:46:52;102227.16;;;19.77;31.03
68366;BME280;55283;51.466;5.478;2023-02-26T08:49:18;102233.53;;;19.81;31.12
68366;BME280;55283;51.466;5.478;2023-02-26T08:51:51;102237.13;;;19.85;31.22
68366;BME280;55283;51.466;5.478;2023-02-26T08:54:16;102238.72;;;19.86;31.54
68366;BME280;55283;51.466;5.478;2023-02-26T08:56:44;102245.13;;;19.90;31.38
68366;BME280;55283;51.466;5.478;2023-02-26T08:59:13;102248.28;;;19.96;31.29
68366;BME280;55283;51.466;5.478;2023-02-26T09:01:39;102254.28;;;19.98;31.62
68366;BME280;55283;51.466;5.478;2023-02-26T09:04:04;102248.25;;;20.03;31.47
68366;BME280;55283;51.466;5.478;2023-02-26T09:06:29;102253.84;;;20.06;31.39
68366;BME280;55283;51.466;5.478;2023-02-26T09:08:55;102252.63;;;20.07;31.29
68366;BME280;55283;51.466;5.478;2023-02-26T09:11:20;102255.44;;;20.11;31.42
68366;BME280;55283;51.466;5.478;2023-02-26T09:13:46;102263.84;;;20.11;31.42
68366;BME280;55283;51.466;5.478;2023-02-26T09:16:11;102256.22;;;20.11;31.84
68366;BME280;55283;51.466;5.478;2023-02-26T09:18:36;102267.41;;;20.15;31.70
68366;BME280;55283;51.466;5.478;2023-02-26T09:21:02;102269.41;;;20.18;31.63
68366;BME280;55283;51.466;5.478;2023-02-26T09:23:28;102266.59;;;20.18;32.07
68366;BME280;55283;51.466;5.478;2023-02-26T09:25:56;102273.38;;;20.24;31.60
68366;BME280;55283;51.466;5.478;2023-02-26T09:28:23;102286.59;;;20.24;32.07
68366;BME280;55283;51.466;5.478;2023-02-26T09:30:55;102276.19;;;20.24;32.04
68366;BME280;55283;51.466;5.478;2023-02-26T09:33:21;102284.19;;;20.26;31.83
68366;BME280;55283;51.466;5.478;2023-02-26T09:35:52;102284.97;;;20.30;31.91
68366;BME280;55283;51.466;5.478;2023-02-26T09:38:18;102288.56;;;20.30;31.97
68366;BME280;55283;51.466;5.478;2023-02-26T09:46:00;102308.19;;;20.38;32.07
68366;BME280;55283;51.466;5.478;2023-02-26T09:48:28;102316.16;;;20.39;32.08
68366;BME280;55283;51.466;5.478;2023-02-26T09:51:00;102323.38;;;20.40;32.21
68366;BME280;55283;51.466;5.478;2023-02-26T09:53:28;102318.16;;;20.42;32.32
68366;BME280;55283;51.466;5.478;2023-02-26T09:56:03;102326.94;;;20.44;32.41
68366;BME280;55283;51.466;5.478;2023-02-26T09:58:39;102329.72;;;20.48;32.29
68366;BME280;55283;51.466;5.478;2023-02-26T10:12:19;102322.50;;;20.54;32.57
68366;BME280;55283;51.466;5.478;2023-02-26T10:14:54;102347.31;;;20.55;32.77
68366;BME280;55283;51.466;5.478;2023-02-26T10:20:32;102347.28;;;20.63;32.55
68366;BME280;55283;51.466;5.478;2023-02-26T10:25:41;102343.69;;;20.66;32.67
68366;BME280;55283;51.466;5.478;2023-02-26T10:36:51;102354.81;;;20.80;32.53
68366;BME280;55283;51.466;5.478;2023-02-26T10:39:37;102333.19;;;20.84;32.71
68366;BME280;55283;51.466;5.478;2023-02-26T10:42:14;102333.59;;;20.86;32.46
68366;BME280;55283;51.466;5.478;2023-02-26T10:44:56;102345.56;;;20.90;32.72
68366;BME280;55283;51.466;5.478;2023-02-26T10:50:32;102350.75;;;20.92;32.72
68366;BME280;55283;51.466;5.478;2023-02-26T10:53:01;102352.75;;;20.91;32.88
68366;BME280;55283;51.466;5.478;2023-02-26T10:55:58;102361.53;;;20.97;33.09
68366;BME280;55283;51.466;5.478;2023-02-26T10:58:28;102352.72;;;21.02;32.70
68366;BME280;55283;51.466;5.478;2023-02-26T11:00:55;102355.13;;;21.00;32.97
68366;BME280;55283;51.466;5.478;2023-02-26T11:03:31;102356.31;;;21.02;33.31
68366;BME280;55283;51.466;5.478;2023-02-26T11:05:58;102360.75;;;20.96;32.92
68366;BME280;55283;51.466;5.478;2023-02-26T11:08:32;102366.31;;;21.00;33.31
68366;BME280;55283;51.466;5.478;2023-02-26T11:11:01;102359.47;;;21.08;33.11
68366;BME280;55283;51.466;5.478;2023-02-26T11:13:30;102361.09;;;21.06;33.30
68366;BME280;55283;51.466;5.478;2023-02-26T11:16:05;102364.28;;;21.08;33.76
68366;BME280;55283;51.466;5.478;2023-02-26T11:18:47;102371.09;;;21.10;34.13
68366;BME280;55283;51.466;5.478;2023-02-26T11:21:21;102361.47;;;21.11;34.38
68366;BME280;55283;51.466;5.478;2023-02-26T11:24:01;102365.06;;;21.12;34.22
68366;BME280;55283;51.466;5.478;2023-02-26T11:26:34;102370.69;;;21.15;34.18
68366;BME280;55283;51.466;5.478;2023-02-26T11:29:04;102361.06;;;21.16;34.21
68366;BME280;55283;51.466;5.478;2023-02-26T11:31:31;102362.66;;;21.17;33.85
68366;BME280;55283;51.466;5.478;2023-02-26T11:34:04;102379.09;;;21.19;34.28
68366;BME280;55283;51.466;5.478;2023-02-26T11:36:33;102358.22;;;21.20;33.90
68366;BME280;55283;51.466;5.478;2023-02-26T11:39:16;102363.84;;;21.20;33.93
68366;BME280;55283;51.466;5.478;2023-02-26T11:41:47;102363.44;;;21.18;33.84
68366;BME280;55283;51.466;5.478;2023-02-26T11:44:26;102365.47;;;21.21;34.66
68366;BME280;55283;51.466;5.478;2023-02-26T11:46:57;102346.16;;;21.27;34.75
68366;BME280;55283;51.466;5.478;2023-02-26T11:49:26;102359.81;;;21.24;35.12
68366;BME280;55283;51.466;5.478;2023-02-26T11:52:19;102350.16;;;21.29;35.33
68366;BME280;55283;51.466;5.478;2023-02-26T11:54:48;102361.38;;;21.29;34.78
68366;BME280;55283;51.466;5.478;2023-02-26T11:57:22;102340.16;;;21.28;34.76
68366;BME280;55283;51.466;5.478;2023-02-26T11:59:52;102357.38;;;21.30;34.74
68366;BME280;55283;51.466;5.478;2023-02-26T12:02:23;102344.94;;;21.31;34.11
68366;BME280;55283;51.466;5.478;2023-02-26T12:05:04;102348.97;;;21.30;34.69
68366;BME280;55283;51.466;5.478;2023-02-26T12:07:31;102350.16;;;21.29;34.42
68366;BME280;55283;51.466;5.478;2023-02-26T12:09:56;102362.16;;;21.33;34.36
68366;BME280;55283;51.466;5.478;2023-02-26T12:15:24;102367.81;;;21.30;34.37
68366;BME280;55283;51.466;5.478;2023-02-26T12:28:38;102349.72;;;21.34;34.04
68366;BME280;55283;51.466;5.478;2023-02-26T12:31:21;102372.59;;;21.33;34.02
68366;BME280;55283;51.466;5.478;2023-02-26T12:34:08;102370.56;;;21.33;34.02
68366;BME280;55283;51.466;5.478;2023-02-26T12:36:42;102362.16;;;21.33;33.68
68366;BME280;55283;51.466;5.478;2023-02-26T12:39:35;102358.53;;;21.36;33.83
68366;BME280;55283;51.466;5.478;2023-02-26T12:47:32;102345.34;;;21.33;33.81
68366;BME280;55283;51.466;5.478;2023-02-26T13:01:29;102354.19;;;21.28;33.52
68366;BME280;55283;51.466;5.478;2023-02-26T13:04:04;102363.81;;;21.27;33.37
68366;BME280;55283;51.466;5.478;2023-02-26T13:06:44;102361.41;;;21.25;33.30
68366;BME280;55283;51.466;5.478;2023-02-26T13:09:32;102350.97;;;21.26;33.26
68366;BME280;55283;51.466;5.478;2023-02-26T13:18:10;102351.44;;;21.21;33.12
68366;BME280;55283;51.466;5.478;2023-02-26T13:20:51;102356.66;;;21.19;33.05
68366;BME280;55283;51.466;5.478;2023-02-26T13:23:22;102354.59;;;21.23;32.96
68366;BME280;55283;51.466;5.478;2023-02-26T13:25:58;102353.41;;;21.20;32.91
68366;BME280;55283;51.466;5.478;2023-02-26T13:31:20;102355.03;;;21.21;32.91
68366;BME280;55283;51.466;5.478;2023-02-26T13:33:47;102359.06;;;21.17;32.59
68366;BME280;55283;51.466;5.478;2023-02-26T13:36:14;102344.25;;;21.13;32.69
68366;BME280;55283;51.466;5.478;2023-02-26T13:38:59;102355.47;;;21.13;32.98
68366;BME280;55283;51.466;5.478;2023-02-26T13:42:13;102341.84;;;21.15;33.01
68366;BME280;55283;51.466;5.478;2023-02-26T13:50:46;102340.66;;;21.12;33.00
68366;BME280;55283;51.466;5.478;2023-02-26T13:56:05;102345.88;;;21.07;32.88
68366;BME280;55283;51.466;5.478;2023-02-26T13:58:41;102346.69;;;21.07;32.58
68366;BME280;55283;51.466;5.478;2023-02-26T14:19:37;102344.34;;;20.91;32.81
68366;BME280;55283;51.466;5.478;2023-02-26T14:22:20;102347.16;;;20.91;32.76
68366;BME280;55283;51.466;5.478;2023-02-26T14:27:37;102333.19;;;20.84;32.87
68366;BME280;55283;51.466;5.478;2023-02-26T14:35:30;102346.81;;;20.82;32.89
68366;BME280;55283;51.466;5.478;2023-02-26T14:40:38;102345.59;;;20.79;32.63
68366;BME280;55283;51.466;5.478;2023-02-26T14:43:05;102346.41;;;20.80;32.84
68366;BME280;55283;51.466;5.478;2023-02-26T14:45:41;102342.44;;;20.77;33.03
68366;BME280;55283;51.466;5.478;2023-02-26T14:48:18;102336.84;;;20.77;32.91
68366;BME280;55283;51.466;5.478;2023-02-26T14:53:43;102340.44;;;20.71;33.02
68366;BME280;55283;51.466;5.478;2023-02-26T15:04:22;102332.47;;;20.62;32.84
68366;BME280;55283;51.466;5.478;2023-02-26T15:13:53;102345.72;;;20.51;33.12
68366;BME280;55283;51.466;5.478;2023-02-26T15:24:17;102347.38;;;20.48;33.60
68366;BME280;55283;51.466;5.478;2023-02-26T15:27:02;102345.75;;;20.44;33.90
68366;BME280;55283;51.466;5.478;2023-02-26T15:29:35;102356.97;;;20.40;34.30
68366;BME280;55283;51.466;5.478;2023-02-26T15:32:26;102360.16;;;20.35;34.66
68366;BME280;55283;51.466;5.478;2023-02-26T15:35:19;102362.19;;;20.31;34.76
68366;BME280;55283;51.466;5.478;2023-02-26T15:37:50;102354.56;;;20.31;34.90
68366;BME280;55283;51.466;5.478;2023-02-26T15:40:17;102350.59;;;20.29;34.88
68366;BME280;55283;51.466;5.478;2023-02-26T15:42:54;102351.78;;;20.24;35.04
68366;BME280;55283;51.466;5.478;2023-02-26T15:45:36;102345.75;;;20.33;36.08
68366;BME280;55283;51.466;5.478;2023-02-26T15:48:29;102360.19;;;20.31;35.51
68366;BME280;55283;51.466;5.478;2023-02-26T15:50:58;102350.19;;;20.38;35.49
68366;BME280;55283;51.466;5.478;2023-02-26T15:55:57;102360.94;;;20.53;36.73
68366;BME280;55283;51.466;5.478;2023-02-26T15:58:45;102360.97;;;20.46;36.58
68366;BME280;55283;51.466;5.478;2023-02-26T16:01:16;102373.78;;;20.44;36.42
68366;BME280;55283;51.466;5.478;2023-02-26T16:03:46;102372.19;;;20.43;36.66
68366;BME280;55283;51.466;5.478;2023-02-26T16:06:16;102371.34;;;20.42;36.64
68366;BME280;55283;51.466;5.478;2023-02-26T16:08:45;102381.78;;;20.42;36.53
68366;BME280;55283;51.466;5.478;2023-02-26T16:11:17;102378.59;;;20.40;36.46
68366;BME280;55283;51.466;5.478;2023-02-26T16:13:44;102380.97;;;20.45;36.30